sensor_id;sensor_type;location;lat;lon;timestamp;pressure;altitude;pressure_sealevel;temperature;humidity
56689;BME280;42565;53.342;-1.534;2024-03-06T00:01:56;99238.62;;;7.17;65.92
56689;BME280;42565;53.342;-1.534;2024-03-06T00:04:23;99241.72;;;7.31;66.01
56689;BME280;42565;53.342;-1.534;2024-03-06T00:06:50;99243.61;;;6.89;67.31
56689;BME280;42565;53.342;-1.534;2024-03-06T00:09:18;99242.33;;;6.62;69.17
56689;BME280;42565;53.342;-1.534;2024-03-06T00:11:44;99244.66;;;6.26;70.67
56689;BME280;42565;53.342;-1.534;2024-03-06T00:14:11;99242.82;;;7.37;68.53
56689;BME280;42565;53.342;-1.534;2024-03-06T00:16:38;99235.39;;;7.60;67.35
56689;BME280;42565;53.342;-1.534;2024-03-06T00:19:05;99240.20;;;7.62;65.41
56689;BME280;42565;53.342;-1.534;2024-03-06T00:21:32;99239.50;;;7.94;64.74
56689;BME280;42565;53.342;-1.534;2024-03-06T00:23:59;99240.27;;;7.61;63.50
56689;BME280;42565;53.342;-1.534;2024-03-06T00:26:27;99239.82;;;7.98;63.40
56689;BME280;42565;53.342;-1.534;2024-03-06T00:28:54;99243.47;;;7.58;64.41
56689;BME280;42565;53.342;-1.534;2024-03-06T00:31:21;99244.02;;;7.91;64.15
56689;BME280;42565;53.342;-1.534;2024-03-06T00:33:48;99244.79;;;8.27;63.22
56689;BME280;42565;53.342;-1.534;2024-03-06T00:36:16;99241.80;;;7.84;63.60
56689;BME280;42565;53.342;-1.534;2024-03-06T00:38:43;99245.52;;;7.93;63.48
56689;BME280;42565;53.342;-1.534;2024-03-06T00:41:10;99247.42;;;8.07;63.95
56689;BME280;42565;53.342;-1.534;2024-03-06T00:43:37;99251.73;;;7.18;66.38
56689;BME280;42565;53.342;-1.534;2024-03-06T00:46:04;99252.99;;;7.10;67.54
56689;BME280;42565;53.342;-1.534;2024-03-06T00:48:31;99253.03;;;7.10;67.91
56689;BME280;42565;53.342;-1.534;2024-03-06T00:50:59;99255.16;;;6.98;67.80
56689;BME280;42565;53.342;-1.534;2024-03-06T00:53:26;99256.20;;;6.77;67.04
56689;BME280;42565;53.342;-1.534;2024-03-06T00:55:54;99252.81;;;7.35;65.60
56689;BME280;42565;53.342;-1.534;2024-03-06T00:58:21;99257.49;;;7.65;65.17
56689;BME280;42565;53.342;-1.534;2024-03-06T01:00:48;99257.96;;;7.66;65.23
56689;BME280;42565;53.342;-1.534;2024-03-06T01:03:14;99255.76;;;7.58;66.71
56689;BME280;42565;53.342;-1.534;2024-03-06T01:05:42;99256.08;;;7.64;67.73
56689;BME280;42565;53.342;-1.534;2024-03-06T01:08:09;99255.16;;;7.08;68.51
56689;BME280;42565;53.342;-1.534;2024-03-06T01:10:36;99257.55;;;6.63;69.05
56689;BME280;42565;53.342;-1.534;2024-03-06T01:13:03;99258.54;;;6.49;69.53
56689;BME280;42565;53.342;-1.534;2024-03-06T01:15:31;99261.72;;;6.89;69.76
56689;BME280;42565;53.342;-1.534;2024-03-06T01:17:58;99261.23;;;6.58;69.28
56689;BME280;42565;53.342;-1.534;2024-03-06T01:20:25;99259.17;;;6.65;68.96
56689;BME280;42565;53.342;-1.534;2024-03-06T01:22:52;99257.75;;;6.64;69.23
56689;BME280;42565;53.342;-1.534;2024-03-06T01:25:19;99258.96;;;6.42;69.44
56689;BME280;42565;53.342;-1.534;2024-03-06T01:27:48;99258.06;;;7.10;68.92
56689;BME280;42565;53.342;-1.534;2024-03-06T01:30:15;99253.39;;;7.33;68.00
56689;BME280;42565;53.342;-1.534;2024-03-06T01:32:42;99252.26;;;7.40;66.60
56689;BME280;42565;53.342;-1.534;2024-03-06T01:35:09;99252.21;;;7.47;66.47
56689;BME280;42565;53.342;-1.534;2024-03-06T01:37:37;99254.68;;;7.45;65.40
56689;BME280;42565;53.342;-1.534;2024-03-06T01:40:06;99256.91;;;7.46;64.55
56689;BME280;42565;53.342;-1.534;2024-03-06T01:42:33;99257.46;;;7.80;63.27
56689;BME280;42565;53.342;-1.534;2024-03-06T01:45:00;99257.79;;;7.54;63.41
56689;BME280;42565;53.342;-1.534;2024-03-06T01:47:27;99257.60;;;7.37;64.27
56689;BME280;42565;53.342;-1.534;2024-03-06T01:49:54;99262.81;;;7.07;65.91
56689;BME280;42565;53.342;-1.534;2024-03-06T01:52:22;99261.35;;;7.26;65.15
56689;BME280;42565;53.342;-1.534;2024-03-06T01:54:50;99262.69;;;7.29;65.29
56689;BME280;42565;53.342;-1.534;2024-03-06T01:57:19;99264.06;;;7.22;65.82
56689;BME280;42565;53.342;-1.534;2024-03-06T01:59:46;99263.24;;;6.98;66.46
56689;BME280;42565;53.342;-1.534;2024-03-06T02:02:13;99259.24;;;7.34;65.48
56689;BME280;42565;53.342;-1.534;2024-03-06T02:04:40;99256.71;;;7.44;65.40
56689;BME280;42565;53.342;-1.534;2024-03-06T02:07:09;99254.03;;;7.34;65.53
56689;BME280;42565;53.342;-1.534;2024-03-06T02:09:36;99255.44;;;7.46;65.86
56689;BME280;42565;53.342;-1.534;2024-03-06T02:12:04;99256.76;;;7.24;65.41
56689;BME280;42565;53.342;-1.534;2024-03-06T02:14:31;99258.05;;;7.47;64.50
56689;BME280;42565;53.342;-1.534;2024-03-06T02:16:58;99258.94;;;7.36;64.77
56689;BME280;42565;53.342;-1.534;2024-03-06T02:19:37;99262.94;;;7.21;64.39
56689;BME280;42565;53.342;-1.534;2024-03-06T02:22:05;99262.92;;;7.27;64.41
56689;BME280;42565;53.342;-1.534;2024-03-06T02:24:32;99262.10;;;7.41;64.35
56689;BME280;42565;53.342;-1.534;2024-03-06T02:27:00;99262.37;;;7.22;63.76
56689;BME280;42565;53.342;-1.534;2024-03-06T02:29:26;99261.51;;;7.32;63.67
56689;BME280;42565;53.342;-1.534;2024-03-06T02:31:54;99260.19;;;7.41;63.54
56689;BME280;42565;53.342;-1.534;2024-03-06T02:34:21;99260.10;;;7.42;63.77
56689;BME280;42565;53.342;-1.534;2024-03-06T02:36:51;99258.10;;;7.65;63.63
56689;BME280;42565;53.342;-1.534;2024-03-06T02:39:18;99256.15;;;7.24;63.87
56689;BME280;42565;53.342;-1.534;2024-03-06T02:41:44;99254.60;;;7.52;63.88
56689;BME280;42565;53.342;-1.534;2024-03-06T02:44:12;99251.35;;;7.22;64.27
56689;BME280;42565;53.342;-1.534;2024-03-06T02:46:39;99252.46;;;7.43;63.41
56689;BME280;42565;53.342;-1.534;2024-03-06T02:49:06;99254.46;;;7.39;62.12
56689;BME280;42565;53.342;-1.534;2024-03-06T02:51:34;99253.05;;;7.18;62.64
56689;BME280;42565;53.342;-1.534;2024-03-06T02:54:01;99253.45;;;7.65;62.88
56689;BME280;42565;53.342;-1.534;2024-03-06T02:56:28;99251.06;;;7.39;62.83
56689;BME280;42565;53.342;-1.534;2024-03-06T02:58:55;99248.95;;;6.58;64.32
56689;BME280;42565;53.342;-1.534;2024-03-06T03:01:22;99252.58;;;6.68;66.35
56689;BME280;42565;53.342;-1.534;2024-03-06T03:03:49;99247.37;;;6.39;67.64
56689;BME280;42565;53.342;-1.534;2024-03-06T03:06:16;99243.28;;;5.45;70.11
56689;BME280;42565;53.342;-1.534;2024-03-06T03:08:43;99248.08;;;5.81;71.19
56689;BME280;42565;53.342;-1.534;2024-03-06T03:11:11;99249.12;;;5.73;71.36
56689;BME280;42565;53.342;-1.534;2024-03-06T03:13:38;99252.12;;;5.49;72.75
56689;BME280;42565;53.342;-1.534;2024-03-06T03:16:05;99251.42;;;5.38;72.49
56689;BME280;42565;53.342;-1.534;2024-03-06T03:18:32;99251.67;;;5.86;71.57
56689;BME280;42565;53.342;-1.534;2024-03-06T03:21:00;99251.79;;;6.12;69.70
56689;BME280;42565;53.342;-1.534;2024-03-06T03:23:27;99252.51;;;6.65;67.62
56689;BME280;42565;53.342;-1.534;2024-03-06T03:25:54;99250.49;;;6.94;65.17
56689;BME280;42565;53.342;-1.534;2024-03-06T03:28:22;99250.65;;;7.04;65.05
56689;BME280;42565;53.342;-1.534;2024-03-06T03:30:49;99250.04;;;6.41;66.82
56689;BME280;42565;53.342;-1.534;2024-03-06T03:33:16;99246.34;;;6.93;65.60
56689;BME280;42565;53.342;-1.534;2024-03-06T03:35:43;99247.13;;;6.79;65.02
56689;BME280;42565;53.342;-1.534;2024-03-06T03:38:10;99249.57;;;7.13;64.64
56689;BME280;42565;53.342;-1.534;2024-03-06T03:40:37;99250.92;;;7.16;65.43
56689;BME280;42565;53.342;-1.534;2024-03-06T03:43:04;99253.64;;;6.62;63.61
56689;BME280;42565;53.342;-1.534;2024-03-06T03:45:31;99251.50;;;6.85;64.19
56689;BME280;42565;53.342;-1.534;2024-03-06T03:47:58;99253.60;;;6.63;65.03
56689;BME280;42565;53.342;-1.534;2024-03-06T03:50:25;99251.35;;;6.32;66.61
56689;BME280;42565;53.342;-1.534;2024-03-06T03:52:52;99247.95;;;6.36;66.97
56689;BME280;42565;53.342;-1.534;2024-03-06T03:55:20;99248.16;;;5.87;69.54
56689;BME280;42565;53.342;-1.534;2024-03-06T03:57:46;99252.24;;;6.76;67.33
56689;BME280;42565;53.342;-1.534;2024-03-06T04:00:14;99252.95;;;6.62;66.69
56689;BME280;42565;53.342;-1.534;2024-03-06T04:02:42;99252.41;;;6.99;66.41
56689;BME280;42565;53.342;-1.534;2024-03-06T04:05:09;99253.97;;;6.99;66.34
56689;BME280;42565;53.342;-1.534;2024-03-06T04:07:37;99249.19;;;7.03;65.33
56689;BME280;42565;53.342;-1.534;2024-03-06T04:10:04;99246.93;;;7.54;65.76
56689;BME280;42565;53.342;-1.534;2024-03-06T04:12:31;99249.56;;;6.99;65.65
56689;BME280;42565;53.342;-1.534;2024-03-06T04:14:58;99251.33;;;6.80;66.36
56689;BME280;42565;53.342;-1.534;2024-03-06T04:17:25;99256.24;;;6.62;67.02
56689;BME280;42565;53.342;-1.534;2024-03-06T04:19:52;99256.24;;;7.21;65.99
56689;BME280;42565;53.342;-1.534;2024-03-06T04:22:19;99259.77;;;7.03;66.77
56689;BME280;42565;53.342;-1.534;2024-03-06T04:24:47;99260.15;;;7.09;67.45
56689;BME280;42565;53.342;-1.534;2024-03-06T04:27:14;99264.13;;;7.10;68.21
56689;BME280;42565;53.342;-1.534;2024-03-06T04:29:41;99262.72;;;7.39;66.71
56689;BME280;42565;53.342;-1.534;2024-03-06T04:32:07;99268.43;;;6.97;67.85
56689;BME280;42565;53.342;-1.534;2024-03-06T04:34:34;99270.00;;;7.66;66.47
56689;BME280;42565;53.342;-1.534;2024-03-06T04:37:01;99275.38;;;6.84;66.13
56689;BME280;42565;53.342;-1.534;2024-03-06T04:39:28;99279.22;;;6.71;65.78
56689;BME280;42565;53.342;-1.534;2024-03-06T04:41:55;99280.13;;;6.93;65.27
56689;BME280;42565;53.342;-1.534;2024-03-06T04:44:23;99279.91;;;7.18;64.44
56689;BME280;42565;53.342;-1.534;2024-03-06T04:46:50;99281.01;;;7.41;64.95
56689;BME280;42565;53.342;-1.534;2024-03-06T04:49:17;99283.64;;;6.93;65.67
56689;BME280;42565;53.342;-1.534;2024-03-06T04:51:44;99287.45;;;6.88;67.76
56689;BME280;42565;53.342;-1.534;2024-03-06T04:54:11;99292.18;;;6.93;68.29
56689;BME280;42565;53.342;-1.534;2024-03-06T04:56:39;99295.74;;;6.95;68.53
56689;BME280;42565;53.342;-1.534;2024-03-06T04:59:06;99297.61;;;6.81;68.39
56689;BME280;42565;53.342;-1.534;2024-03-06T05:01:33;99298.26;;;7.44;66.70
56689;BME280;42565;53.342;-1.534;2024-03-06T05:04:01;99300.32;;;7.47;66.28
56689;BME280;42565;53.342;-1.534;2024-03-06T05:06:28;99304.55;;;7.46;66.37
56689;BME280;42565;53.342;-1.534;2024-03-06T05:08:55;99305.26;;;7.25;67.40
56689;BME280;42565;53.342;-1.534;2024-03-06T05:11:21;99304.82;;;7.36;67.18
56689;BME280;42565;53.342;-1.534;2024-03-06T05:13:49;99301.68;;;7.32;68.16
56689;BME280;42565;53.342;-1.534;2024-03-06T05:16:16;99302.70;;;7.41;67.19
56689;BME280;42565;53.342;-1.534;2024-03-06T05:18:43;99302.72;;;7.39;67.71
56689;BME280;42565;53.342;-1.534;2024-03-06T05:21:10;99302.39;;;7.43;67.36
56689;BME280;42565;53.342;-1.534;2024-03-06T05:23:37;99301.55;;;7.60;67.45
56689;BME280;42565;53.342;-1.534;2024-03-06T05:26:05;99307.79;;;7.68;67.40
56689;BME280;42565;53.342;-1.534;2024-03-06T05:28:32;99312.22;;;7.78;67.03
56689;BME280;42565;53.342;-1.534;2024-03-06T05:31:00;99312.40;;;7.56;67.41
56689;BME280;42565;53.342;-1.534;2024-03-06T05:33:26;99315.18;;;7.91;67.13
56689;BME280;42565;53.342;-1.534;2024-03-06T05:35:54;99315.09;;;7.03;68.04
56689;BME280;42565;53.342;-1.534;2024-03-06T05:38:21;99316.10;;;7.67;67.02
56689;BME280;42565;53.342;-1.534;2024-03-06T05:40:48;99318.71;;;6.97;69.44
56689;BME280;42565;53.342;-1.534;2024-03-06T05:43:15;99323.37;;;6.72;71.93
56689;BME280;42565;53.342;-1.534;2024-03-06T05:45:43;99323.56;;;6.51;73.49
56689;BME280;42565;53.342;-1.534;2024-03-06T05:48:10;99326.23;;;6.07;73.66
56689;BME280;42565;53.342;-1.534;2024-03-06T05:50:38;99326.19;;;6.35;75.31
56689;BME280;42565;53.342;-1.534;2024-03-06T05:53:04;99331.52;;;6.02;76.02
56689;BME280;42565;53.342;-1.534;2024-03-06T05:55:32;99330.09;;;6.09;76.04
56689;BME280;42565;53.342;-1.534;2024-03-06T05:57:59;99335.24;;;6.08;76.20
56689;BME280;42565;53.342;-1.534;2024-03-06T06:00:26;99339.14;;;6.03;76.58
56689;BME280;42565;53.342;-1.534;2024-03-06T06:02:53;99344.39;;;5.74;76.84
56689;BME280;42565;53.342;-1.534;2024-03-06T06:05:20;99345.11;;;6.07;76.57
56689;BME280;42565;53.342;-1.534;2024-03-06T06:07:47;99347.21;;;6.40;75.25
56689;BME280;42565;53.342;-1.534;2024-03-06T06:10:14;99348.79;;;6.78;73.21
56689;BME280;42565;53.342;-1.534;2024-03-06T06:12:41;99352.25;;;6.59;74.64
56689;BME280;42565;53.342;-1.534;2024-03-06T06:15:09;99352.67;;;6.17;76.10
56689;BME280;42565;53.342;-1.534;2024-03-06T06:17:36;99354.24;;;6.28;76.19
56689;BME280;42565;53.342;-1.534;2024-03-06T06:20:06;99354.50;;;6.14;75.92
56689;BME280;42565;53.342;-1.534;2024-03-06T06:22:33;99353.39;;;6.66;74.38
56689;BME280;42565;53.342;-1.534;2024-03-06T06:25:00;99350.30;;;6.20;74.76
56689;BME280;42565;53.342;-1.534;2024-03-06T06:27:26;99353.64;;;7.29;73.19
56689;BME280;42565;53.342;-1.534;2024-03-06T06:29:54;99350.11;;;7.27;72.10
56689;BME280;42565;53.342;-1.534;2024-03-06T06:32:21;99356.52;;;7.69;70.50
56689;BME280;42565;53.342;-1.534;2024-03-06T06:34:48;99358.08;;;7.57;70.20
56689;BME280;42565;53.342;-1.534;2024-03-06T06:37:16;99359.92;;;7.34;70.62
56689;BME280;42565;53.342;-1.534;2024-03-06T06:39:43;99360.04;;;7.38;70.66
56689;BME280;42565;53.342;-1.534;2024-03-06T06:42:10;99362.96;;;7.54;70.31
56689;BME280;42565;53.342;-1.534;2024-03-06T06:44:37;99363.33;;;7.13;71.76
56689;BME280;42565;53.342;-1.534;2024-03-06T06:47:04;99362.06;;;7.32;71.28
56689;BME280;42565;53.342;-1.534;2024-03-06T06:49:31;99367.66;;;7.34;71.97
56689;BME280;42565;53.342;-1.534;2024-03-06T06:51:58;99372.75;;;6.78;73.31
56689;BME280;42565;53.342;-1.534;2024-03-06T06:54:24;99373.93;;;7.12;72.37
56689;BME280;42565;53.342;-1.534;2024-03-06T06:56:52;99374.60;;;7.52;71.60
56689;BME280;42565;53.342;-1.534;2024-03-06T06:59:19;99375.98;;;6.68;73.65
56689;BME280;42565;53.342;-1.534;2024-03-06T07:01:46;99375.33;;;6.82;74.98
56689;BME280;42565;53.342;-1.534;2024-03-06T07:04:13;99381.70;;;6.30;76.10
56689;BME280;42565;53.342;-1.534;2024-03-06T07:06:40;99380.28;;;6.16;76.92
56689;BME280;42565;53.342;-1.534;2024-03-06T07:09:07;99384.02;;;6.07;76.51
56689;BME280;42565;53.342;-1.534;2024-03-06T07:11:34;99389.40;;;6.39;76.57
56689;BME280;42565;53.342;-1.534;2024-03-06T07:14:01;99392.92;;;6.01;75.79
56689;BME280;42565;53.342;-1.534;2024-03-06T07:16:28;99395.04;;;6.31;77.02
56689;BME280;42565;53.342;-1.534;2024-03-06T07:18:56;99395.85;;;5.66;77.43
56689;BME280;42565;53.342;-1.534;2024-03-06T07:21:23;99397.25;;;6.24;78.07
56689;BME280;42565;53.342;-1.534;2024-03-06T07:23:49;99398.21;;;5.97;77.42
56689;BME280;42565;53.342;-1.534;2024-03-06T07:26:16;99401.72;;;6.93;75.17
56689;BME280;42565;53.342;-1.534;2024-03-06T07:28:43;99404.31;;;7.37;73.30
56689;BME280;42565;53.342;-1.534;2024-03-06T07:31:11;99404.24;;;7.07;72.57
56689;BME280;42565;53.342;-1.534;2024-03-06T07:33:38;99404.47;;;7.28;72.69
56689;BME280;42565;53.342;-1.534;2024-03-06T07:36:38;99401.84;;;6.78;71.73
56689;BME280;42565;53.342;-1.534;2024-03-06T07:39:05;99401.32;;;7.17;70.57
56689;BME280;42565;53.342;-1.534;2024-03-06T07:41:32;99406.21;;;7.00;71.36
56689;BME280;42565;53.342;-1.534;2024-03-06T07:43:59;99405.83;;;6.62;72.14
56689;BME280;42565;53.342;-1.534;2024-03-06T07:46:26;99404.61;;;7.07;72.30
56689;BME280;42565;53.342;-1.534;2024-03-06T07:48:53;99407.61;;;6.92;72.83
56689;BME280;42565;53.342;-1.534;2024-03-06T07:51:20;99406.81;;;7.32;71.84
56689;BME280;42565;53.342;-1.534;2024-03-06T07:53:47;99407.81;;;7.88;70.16
56689;BME280;42565;53.342;-1.534;2024-03-06T07:56:15;99412.57;;;7.79;70.28
56689;BME280;42565;53.342;-1.534;2024-03-06T07:58:41;99418.24;;;7.39;71.04
56689;BME280;42565;53.342;-1.534;2024-03-06T08:01:09;99416.75;;;7.80;69.75
56689;BME280;42565;53.342;-1.534;2024-03-06T08:03:38;99419.82;;;6.96;72.56
56689;BME280;42565;53.342;-1.534;2024-03-06T08:06:06;99417.82;;;7.34;71.62
56689;BME280;42565;53.342;-1.534;2024-03-06T08:08:33;99419.79;;;8.08;69.93
56689;BME280;42565;53.342;-1.534;2024-03-06T08:11:00;99420.14;;;7.26;70.93
56689;BME280;42565;53.342;-1.534;2024-03-06T08:13:28;99417.73;;;8.14;68.42
56689;BME280;42565;53.342;-1.534;2024-03-06T08:15:54;99423.74;;;6.66;71.17
56689;BME280;42565;53.342;-1.534;2024-03-06T08:18:22;99424.66;;;7.30;71.89
56689;BME280;42565;53.342;-1.534;2024-03-06T08:20:49;99430.01;;;7.35;71.90
56689;BME280;42565;53.342;-1.534;2024-03-06T08:23:16;99430.22;;;7.18;71.81
56689;BME280;42565;53.342;-1.534;2024-03-06T08:25:43;99429.69;;;7.09;72.04
56689;BME280;42565;53.342;-1.534;2024-03-06T08:28:10;99434.47;;;7.77;70.57
56689;BME280;42565;53.342;-1.534;2024-03-06T08:30:37;99436.10;;;7.73;69.95
56689;BME280;42565;53.342;-1.534;2024-03-06T08:33:04;99435.14;;;7.90;68.45
56689;BME280;42565;53.342;-1.534;2024-03-06T08:35:31;99433.29;;;8.39;67.43
56689;BME280;42565;53.342;-1.534;2024-03-06T08:37:59;99428.34;;;7.78;68.64
56689;BME280;42565;53.342;-1.534;2024-03-06T08:40:26;99429.69;;;8.20;68.21
56689;BME280;42565;53.342;-1.534;2024-03-06T08:42:54;99427.16;;;8.40;67.40
56689;BME280;42565;53.342;-1.534;2024-03-06T08:45:21;99430.62;;;8.50;66.89
56689;BME280;42565;53.342;-1.534;2024-03-06T08:47:49;99431.96;;;8.32;65.92
56689;BME280;42565;53.342;-1.534;2024-03-06T08:50:16;99434.87;;;9.21;62.65
56689;BME280;42565;53.342;-1.534;2024-03-06T08:52:44;99434.51;;;9.12;60.87
56689;BME280;42565;53.342;-1.534;2024-03-06T08:55:14;99435.65;;;9.23;61.27
56689;BME280;42565;53.342;-1.534;2024-03-06T08:57:41;99437.05;;;9.92;58.63
56689;BME280;42565;53.342;-1.534;2024-03-06T09:00:09;99441.23;;;10.31;57.80
56689;BME280;42565;53.342;-1.534;2024-03-06T09:02:36;99437.70;;;10.70;56.88
56689;BME280;42565;53.342;-1.534;2024-03-06T09:05:04;99441.26;;;10.28;56.66
56689;BME280;42565;53.342;-1.534;2024-03-06T09:07:31;99438.06;;;10.56;55.48
56689;BME280;42565;53.342;-1.534;2024-03-06T09:09:59;99438.96;;;10.81;54.40
56689;BME280;42565;53.342;-1.534;2024-03-06T09:12:26;99439.33;;;10.86;54.16
56689;BME280;42565;53.342;-1.534;2024-03-06T09:14:54;99439.25;;;10.70;52.55
56689;BME280;42565;53.342;-1.534;2024-03-06T09:17:20;99438.84;;;11.12;52.16
56689;BME280;42565;53.342;-1.534;2024-03-06T09:19:48;99438.35;;;11.19;51.74
56689;BME280;42565;53.342;-1.534;2024-03-06T09:22:15;99440.88;;;10.96;52.26
56689;BME280;42565;53.342;-1.534;2024-03-06T09:24:43;99443.35;;;11.90;51.30
56689;BME280;42565;53.342;-1.534;2024-03-06T09:27:10;99446.10;;;12.22;51.63
56689;BME280;42565;53.342;-1.534;2024-03-06T09:29:37;99447.18;;;13.23;49.71
56689;BME280;42565;53.342;-1.534;2024-03-06T09:32:04;99448.16;;;12.82;48.87
56689;BME280;42565;53.342;-1.534;2024-03-06T09:34:31;99446.15;;;13.45;47.05
56689;BME280;42565;53.342;-1.534;2024-03-06T09:36:58;99448.61;;;13.37;46.24
56689;BME280;42565;53.342;-1.534;2024-03-06T09:39:25;99449.25;;;13.64;46.92
56689;BME280;42565;53.342;-1.534;2024-03-06T09:41:54;99450.86;;;14.02;46.54
56689;BME280;42565;53.342;-1.534;2024-03-06T09:44:21;99454.70;;;13.80;45.21
56689;BME280;42565;53.342;-1.534;2024-03-06T09:46:49;99453.05;;;14.67;44.33
56689;BME280;42565;53.342;-1.534;2024-03-06T09:49:17;99452.09;;;13.54;46.40
56689;BME280;42565;53.342;-1.534;2024-03-06T09:51:46;99451.88;;;13.57;45.61
56689;BME280;42565;53.342;-1.534;2024-03-06T09:54:14;99455.86;;;14.03;45.14
56689;BME280;42565;53.342;-1.534;2024-03-06T09:56:41;99461.00;;;12.65;48.91
56689;BME280;42565;53.342;-1.534;2024-03-06T09:59:08;99461.78;;;12.17;47.92
56689;BME280;42565;53.342;-1.534;2024-03-06T10:01:40;99464.50;;;11.97;48.76
56689;BME280;42565;53.342;-1.534;2024-03-06T10:04:25;99463.64;;;11.59;49.30
56689;BME280;42565;53.342;-1.534;2024-03-06T10:06:53;99463.98;;;10.82;51.48
56689;BME280;42565;53.342;-1.534;2024-03-06T10:09:21;99464.64;;;10.80;53.58
56689;BME280;42565;53.342;-1.534;2024-03-06T10:11:48;99468.93;;;10.44;52.18
56689;BME280;42565;53.342;-1.534;2024-03-06T10:14:15;99469.51;;;10.91;52.58
56689;BME280;42565;53.342;-1.534;2024-03-06T10:17:00;99469.95;;;11.02;51.76
56689;BME280;42565;53.342;-1.534;2024-03-06T10:19:28;99470.31;;;10.23;55.25
56689;BME280;42565;53.342;-1.534;2024-03-06T10:21:57;99473.25;;;9.45;56.57
56689;BME280;42565;53.342;-1.534;2024-03-06T10:24:25;99470.07;;;10.95;53.49
56689;BME280;42565;53.342;-1.534;2024-03-06T10:26:55;99471.72;;;10.06;55.46
56689;BME280;42565;53.342;-1.534;2024-03-06T10:29:22;99468.87;;;9.09;55.22
56689;BME280;42565;53.342;-1.534;2024-03-06T10:31:52;99468.85;;;10.19;50.90
56689;BME280;42565;53.342;-1.534;2024-03-06T10:34:20;99470.18;;;11.09;52.98
56689;BME280;42565;53.342;-1.534;2024-03-06T10:36:54;99475.35;;;9.50;55.96
56689;BME280;42565;53.342;-1.534;2024-03-06T10:39:22;99476.28;;;11.34;51.23
56689;BME280;42565;53.342;-1.534;2024-03-06T10:41:52;99480.53;;;11.51;49.40
56689;BME280;42565;53.342;-1.534;2024-03-06T10:44:22;99485.67;;;10.97;49.72
56689;BME280;42565;53.342;-1.534;2024-03-06T10:46:56;99487.70;;;10.86;47.19
56689;BME280;42565;53.342;-1.534;2024-03-06T10:49:25;99487.78;;;10.67;47.51
56689;BME280;42565;53.342;-1.534;2024-03-06T10:51:54;99493.90;;;10.94;48.47
56689;BME280;42565;53.342;-1.534;2024-03-06T10:54:27;99494.76;;;9.90;50.85
56689;BME280;42565;53.342;-1.534;2024-03-06T10:56:55;99496.67;;;9.34;52.56
56689;BME280;42565;53.342;-1.534;2024-03-06T10:59:24;99494.50;;;9.68;54.18
56689;BME280;42565;53.342;-1.534;2024-03-06T11:01:53;99496.23;;;8.87;54.96
56689;BME280;42565;53.342;-1.534;2024-03-06T11:04:20;99497.26;;;9.47;54.99
56689;BME280;42565;53.342;-1.534;2024-03-06T11:06:48;99495.70;;;9.62;54.96
56689;BME280;42565;53.342;-1.534;2024-03-06T11:09:15;99496.43;;;9.08;55.42
56689;BME280;42565;53.342;-1.534;2024-03-06T11:11:48;99498.63;;;10.03;53.59
56689;BME280;42565;53.342;-1.534;2024-03-06T11:14:15;99499.25;;;10.40;52.88
56689;BME280;42565;53.342;-1.534;2024-03-06T11:17:00;99500.50;;;10.48;52.52
56689;BME280;42565;53.342;-1.534;2024-03-06T11:19:29;99503.71;;;9.21;55.77
56689;BME280;42565;53.342;-1.534;2024-03-06T11:21:56;99500.35;;;9.41;56.44
56689;BME280;42565;53.342;-1.534;2024-03-06T11:24:24;99498.76;;;10.34;53.57
56689;BME280;42565;53.342;-1.534;2024-03-06T11:27:00;99499.04;;;9.27;56.09
56689;BME280;42565;53.342;-1.534;2024-03-06T11:29:29;99494.01;;;9.61;56.59
56689;BME280;42565;53.342;-1.534;2024-03-06T11:32:02;99495.10;;;8.98;55.84
56689;BME280;42565;53.342;-1.534;2024-03-06T11:34:30;99502.25;;;9.04;57.65
56689;BME280;42565;53.342;-1.534;2024-03-06T11:36:58;99501.04;;;9.61;56.88
56689;BME280;42565;53.342;-1.534;2024-03-06T11:39:29;99500.36;;;10.54;54.14
56689;BME280;42565;53.342;-1.534;2024-03-06T11:41:56;99498.29;;;10.18;55.58
56689;BME280;42565;53.342;-1.534;2024-03-06T11:44:23;99496.73;;;10.00;54.93
56689;BME280;42565;53.342;-1.534;2024-03-06T11:46:57;99497.05;;;9.91;55.81
56689;BME280;42565;53.342;-1.534;2024-03-06T11:49:26;99501.70;;;10.53;55.38
56689;BME280;42565;53.342;-1.534;2024-03-06T11:51:55;99498.08;;;10.52;55.67
56689;BME280;42565;53.342;-1.534;2024-03-06T11:54:22;99499.20;;;10.11;55.37
56689;BME280;42565;53.342;-1.534;2024-03-06T11:56:51;99500.87;;;11.42;54.31
56689;BME280;42565;53.342;-1.534;2024-03-06T11:59:21;99506.58;;;10.76;54.78
56689;BME280;42565;53.342;-1.534;2024-03-06T12:01:48;99508.65;;;10.25;52.95
56689;BME280;42565;53.342;-1.534;2024-03-06T12:04:16;99509.09;;;10.04;52.28
56689;BME280;42565;53.342;-1.534;2024-03-06T12:06:43;99503.93;;;11.29;51.46
56689;BME280;42565;53.342;-1.534;2024-03-06T12:09:10;99504.16;;;10.87;51.79
56689;BME280;42565;53.342;-1.534;2024-03-06T12:11:38;99507.17;;;11.06;52.36
56689;BME280;42565;53.342;-1.534;2024-03-06T12:14:05;99503.99;;;9.37;55.42
56689;BME280;42565;53.342;-1.534;2024-03-06T12:16:32;99502.17;;;11.11;54.90
56689;BME280;42565;53.342;-1.534;2024-03-06T12:18:59;99505.30;;;10.35;53.06
56689;BME280;42565;53.342;-1.534;2024-03-06T12:21:28;99505.57;;;8.66;58.75
56689;BME280;42565;53.342;-1.534;2024-03-06T12:24:02;99503.86;;;9.47;55.06
56689;BME280;42565;53.342;-1.534;2024-03-06T12:26:30;99503.28;;;10.02;55.77
56689;BME280;42565;53.342;-1.534;2024-03-06T12:29:04;99507.20;;;10.70;55.07
56689;BME280;42565;53.342;-1.534;2024-03-06T12:31:34;99508.38;;;8.90;58.08
56689;BME280;42565;53.342;-1.534;2024-03-06T12:34:02;99506.11;;;8.84;58.39
56689;BME280;42565;53.342;-1.534;2024-03-06T12:36:30;99506.10;;;9.76;56.44
56689;BME280;42565;53.342;-1.534;2024-03-06T12:38:59;99501.79;;;9.48;56.90
56689;BME280;42565;53.342;-1.534;2024-03-06T12:41:27;99500.91;;;9.33;56.78
56689;BME280;42565;53.342;-1.534;2024-03-06T12:43:56;99500.00;;;9.72;56.32
56689;BME280;42565;53.342;-1.534;2024-03-06T12:46:23;99499.34;;;9.25;57.92
56689;BME280;42565;53.342;-1.534;2024-03-06T12:48:51;99498.78;;;9.01;59.22
56689;BME280;42565;53.342;-1.534;2024-03-06T12:51:18;99499.48;;;9.77;58.40
56689;BME280;42565;53.342;-1.534;2024-03-06T12:53:45;99503.43;;;9.88;55.42
56689;BME280;42565;53.342;-1.534;2024-03-06T12:56:12;99502.70;;;9.57;55.63
56689;BME280;42565;53.342;-1.534;2024-03-06T12:58:39;99502.36;;;11.33;50.89
56689;BME280;42565;53.342;-1.534;2024-03-06T13:01:05;99499.29;;;11.12;51.03